Terminal Aerodrome Forecast
Issued by NWS

Home | Current Version | Previous Version | Text Only | Print | Product List | Glossary On
Versions: 1 2 3 4 5 6 7 8 9 10 11 12 13 14 15
000
FTUS41 KBOX 282332
TAFBAF
TAF
KBAF 282332Z 2900/2924 28007KT P6SM SCT250
     FM290300 VRB03KT P6SM SCT120
     FM290700 00000KT P6SM BKN080
     FM291800 20011G20KT P6SM SCT070
     FM291900 20012G21KT P6SM BKN070=

USA.gov is the U.S. government's official web portal to all federal, state and local government web resources and services.